sensor_id;sensor_type;location;lat;lon;timestamp;P1;durP1;ratioP1;P2;durP2;ratioP2
29280;SDS011;25048;49.590;11.026;2023-04-24T00:01:27;520.43;;;72.73;;
29280;SDS011;25048;49.590;11.026;2023-04-24T00:03:56;521.53;;;73.43;;
29280;SDS011;25048;49.590;11.026;2023-04-24T00:06:25;535.10;;;84.60;;
29280;SDS011;25048;49.590;11.026;2023-04-24T00:08:57;522.70;;;75.60;;
29280;SDS011;25048;49.590;11.026;2023-04-24T00:11:26;526.93;;;76.90;;
29280;SDS011;25048;49.590;11.026;2023-04-24T00:13:53;517.37;;;74.70;;
29280;SDS011;25048;49.590;11.026;2023-04-24T00:16:22;521.53;;;75.17;;
29280;SDS011;25048;49.590;11.026;2023-04-24T00:18:50;524.00;;;74.87;;
29280;SDS011;25048;49.590;11.026;2023-04-24T00:21:19;514.40;;;73.50;;
29280;SDS011;25048;49.590;11.026;2023-04-24T00:23:47;513.47;;;73.90;;
29280;SDS011;25048;49.590;11.026;2023-04-24T00:26:14;518.83;;;73.97;;
29280;SDS011;25048;49.590;11.026;2023-04-24T00:28:42;508.13;;;71.70;;
29280;SDS011;25048;49.590;11.026;2023-04-24T00:31:09;515.67;;;70.87;;
29280;SDS011;25048;49.590;11.026;2023-04-24T00:33:37;508.83;;;70.93;;
29280;SDS011;25048;49.590;11.026;2023-04-24T00:36:05;514.90;;;71.67;;
29280;SDS011;25048;49.590;11.026;2023-04-24T00:38:33;515.50;;;71.43;;
29280;SDS011;25048;49.590;11.026;2023-04-24T00:41:01;513.90;;;69.83;;
29280;SDS011;25048;49.590;11.026;2023-04-24T00:43:28;507.70;;;69.50;;
29280;SDS011;25048;49.590;11.026;2023-04-24T00:45:55;508.73;;;70.43;;
29280;SDS011;25048;49.590;11.026;2023-04-24T00:48:25;511.53;;;69.00;;
29280;SDS011;25048;49.590;11.026;2023-04-24T00:50:54;514.20;;;72.57;;
29280;SDS011;25048;49.590;11.026;2023-04-24T00:53:21;513.53;;;70.70;;
29280;SDS011;25048;49.590;11.026;2023-04-24T00:55:49;506.33;;;68.63;;
29280;SDS011;25048;49.590;11.026;2023-04-24T00:58:18;512.13;;;68.57;;
29280;SDS011;25048;49.590;11.026;2023-04-24T01:00:45;500.80;;;64.80;;
29280;SDS011;25048;49.590;11.026;2023-04-24T01:03:14;492.53;;;64.13;;
29280;SDS011;25048;49.590;11.026;2023-04-24T01:05:42;495.43;;;63.80;;
29280;SDS011;25048;49.590;11.026;2023-04-24T01:08:10;493.73;;;62.73;;
29280;SDS011;25048;49.590;11.026;2023-04-24T01:10:37;494.30;;;64.33;;
29280;SDS011;25048;49.590;11.026;2023-04-24T01:13:07;490.47;;;63.10;;
29280;SDS011;25048;49.590;11.026;2023-04-24T01:15:35;490.63;;;64.57;;
29280;SDS011;25048;49.590;11.026;2023-04-24T01:18:03;490.43;;;64.90;;
29280;SDS011;25048;49.590;11.026;2023-04-24T01:20:30;476.47;;;63.27;;
29280;SDS011;25048;49.590;11.026;2023-04-24T01:22:59;493.93;;;66.97;;
29280;SDS011;25048;49.590;11.026;2023-04-24T01:25:26;493.63;;;63.80;;
29280;SDS011;25048;49.590;11.026;2023-04-24T01:27:56;466.70;;;61.33;;
29280;SDS011;25048;49.590;11.026;2023-04-24T01:30:23;485.13;;;62.60;;
29280;SDS011;25048;49.590;11.026;2023-04-24T01:32:51;488.33;;;64.70;;
29280;SDS011;25048;49.590;11.026;2023-04-24T01:35:20;481.37;;;62.17;;
29280;SDS011;25048;49.590;11.026;2023-04-24T01:37:48;482.40;;;63.43;;
29280;SDS011;25048;49.590;11.026;2023-04-24T01:40:15;476.50;;;64.00;;
29280;SDS011;25048;49.590;11.026;2023-04-24T01:42:43;469.23;;;62.97;;
29280;SDS011;25048;49.590;11.026;2023-04-24T01:45:11;467.17;;;61.73;;
29280;SDS011;25048;49.590;11.026;2023-04-24T01:47:39;467.67;;;62.17;;
29280;SDS011;25048;49.590;11.026;2023-04-24T01:50:07;461.57;;;63.40;;
29280;SDS011;25048;49.590;11.026;2023-04-24T01:52:35;463.20;;;63.17;;
29280;SDS011;25048;49.590;11.026;2023-04-24T01:55:03;458.83;;;61.60;;
29280;SDS011;25048;49.590;11.026;2023-04-24T01:57:31;456.53;;;61.80;;
29280;SDS011;25048;49.590;11.026;2023-04-24T02:00:00;444.37;;;60.73;;
29280;SDS011;25048;49.590;11.026;2023-04-24T02:02:30;435.20;;;61.63;;
29280;SDS011;25048;49.590;11.026;2023-04-24T02:04:57;440.83;;;61.00;;
29280;SDS011;25048;49.590;11.026;2023-04-24T02:07:25;441.33;;;61.10;;
29280;SDS011;25048;49.590;11.026;2023-04-24T02:09:52;445.00;;;60.57;;
29280;SDS011;25048;49.590;11.026;2023-04-24T02:12:21;447.50;;;62.00;;
29280;SDS011;25048;49.590;11.026;2023-04-24T02:14:48;437.93;;;61.03;;
29280;SDS011;25048;49.590;11.026;2023-04-24T02:17:16;441.27;;;61.30;;
29280;SDS011;25048;49.590;11.026;2023-04-24T02:19:44;431.77;;;60.90;;
29280;SDS011;25048;49.590;11.026;2023-04-24T02:22:12;437.93;;;62.03;;
29280;SDS011;25048;49.590;11.026;2023-04-24T02:24:40;400.73;;;57.97;;
29280;SDS011;25048;49.590;11.026;2023-04-24T02:27:07;420.07;;;61.57;;
29280;SDS011;25048;49.590;11.026;2023-04-24T02:29:35;394.33;;;58.00;;
29280;SDS011;25048;49.590;11.026;2023-04-24T02:32:02;381.20;;;56.60;;
29280;SDS011;25048;49.590;11.026;2023-04-24T02:34:30;403.50;;;59.47;;
29280;SDS011;25048;49.590;11.026;2023-04-24T02:36:57;410.57;;;61.40;;
29280;SDS011;25048;49.590;11.026;2023-04-24T02:39:25;389.23;;;58.73;;
29280;SDS011;25048;49.590;11.026;2023-04-24T02:41:52;389.83;;;58.47;;
29280;SDS011;25048;49.590;11.026;2023-04-24T02:44:20;396.53;;;59.47;;
29280;SDS011;25048;49.590;11.026;2023-04-24T02:46:48;374.90;;;57.13;;
29280;SDS011;25048;49.590;11.026;2023-04-24T02:49:15;399.00;;;60.27;;
29280;SDS011;25048;49.590;11.026;2023-04-24T02:51:43;399.77;;;60.47;;
29280;SDS011;25048;49.590;11.026;2023-04-24T02:54:10;371.77;;;57.23;;
29280;SDS011;25048;49.590;11.026;2023-04-24T02:56:38;359.70;;;55.87;;
29280;SDS011;25048;49.590;11.026;2023-04-24T02:59:05;380.57;;;58.77;;
29280;SDS011;25048;49.590;11.026;2023-04-24T03:01:33;380.97;;;58.17;;
29280;SDS011;25048;49.590;11.026;2023-04-24T03:04:01;333.87;;;51.53;;
29280;SDS011;25048;49.590;11.026;2023-04-24T03:06:29;249.03;;;39.70;;
29280;SDS011;25048;49.590;11.026;2023-04-24T03:08:58;316.37;;;57.67;;
29280;SDS011;25048;49.590;11.026;2023-04-24T03:11:26;301.53;;;56.87;;
29280;SDS011;25048;49.590;11.026;2023-04-24T03:13:53;295.83;;;57.13;;
29280;SDS011;25048;49.590;11.026;2023-04-24T03:16:21;293.37;;;56.93;;
29280;SDS011;25048;49.590;11.026;2023-04-24T03:18:48;290.33;;;56.87;;
29280;SDS011;25048;49.590;11.026;2023-04-24T03:21:16;292.43;;;56.77;;
29280;SDS011;25048;49.590;11.026;2023-04-24T03:23:43;299.67;;;58.20;;
29280;SDS011;25048;49.590;11.026;2023-04-24T03:26:11;289.83;;;56.20;;
29280;SDS011;25048;49.590;11.026;2023-04-24T03:28:38;282.37;;;56.73;;
29280;SDS011;25048;49.590;11.026;2023-04-24T03:31:06;243.90;;;53.63;;
29280;SDS011;25048;49.590;11.026;2023-04-24T03:33:34;262.57;;;55.47;;
29280;SDS011;25048;49.590;11.026;2023-04-24T03:36:01;268.07;;;56.70;;
29280;SDS011;25048;49.590;11.026;2023-04-24T03:38:30;266.20;;;55.57;;
29280;SDS011;25048;49.590;11.026;2023-04-24T03:40:58;261.77;;;54.70;;
29280;SDS011;25048;49.590;11.026;2023-04-24T03:43:25;263.07;;;55.60;;
29280;SDS011;25048;49.590;11.026;2023-04-24T03:45:53;259.90;;;55.77;;
29280;SDS011;25048;49.590;11.026;2023-04-24T03:48:21;258.87;;;54.57;;
29280;SDS011;25048;49.590;11.026;2023-04-24T03:50:48;256.20;;;55.10;;
29280;SDS011;25048;49.590;11.026;2023-04-24T03:53:16;259.63;;;55.43;;
29280;SDS011;25048;49.590;11.026;2023-04-24T03:55:43;256.00;;;54.47;;
29280;SDS011;25048;49.590;11.026;2023-04-24T03:58:11;254.40;;;54.47;;
29280;SDS011;25048;49.590;11.026;2023-04-24T04:00:40;252.50;;;55.60;;
29280;SDS011;25048;49.590;11.026;2023-04-24T04:03:07;248.97;;;54.37;;
29280;SDS011;25048;49.590;11.026;2023-04-24T04:05:35;247.53;;;54.47;;
29280;SDS011;25048;49.590;11.026;2023-04-24T04:08:02;247.37;;;54.10;;
29280;SDS011;25048;49.590;11.026;2023-04-24T04:10:30;231.23;;;69.20;;
29280;SDS011;25048;49.590;11.026;2023-04-24T04:12:58;390.90;;;358.30;;
29280;SDS011;25048;49.590;11.026;2023-04-24T04:15:25;519.50;;;409.23;;
29280;SDS011;25048;49.590;11.026;2023-04-24T04:17:53;636.13;;;569.83;;
29280;SDS011;25048;49.590;11.026;2023-04-24T04:20:20;763.40;;;536.27;;
29280;SDS011;25048;49.590;11.026;2023-04-24T04:22:48;708.67;;;522.37;;
29280;SDS011;25048;49.590;11.026;2023-04-24T04:25:15;676.13;;;549.00;;
29280;SDS011;25048;49.590;11.026;2023-04-24T04:27:45;820.60;;;531.53;;
29280;SDS011;25048;49.590;11.026;2023-04-24T04:30:16;666.40;;;514.73;;
29280;SDS011;25048;49.590;11.026;2023-04-24T04:32:44;647.33;;;461.47;;
29280;SDS011;25048;49.590;11.026;2023-04-24T04:35:11;788.07;;;497.00;;
29280;SDS011;25048;49.590;11.026;2023-04-24T04:37:39;678.97;;;365.17;;
29280;SDS011;25048;49.590;11.026;2023-04-24T04:40:07;664.80;;;392.23;;
29280;SDS011;25048;49.590;11.026;2023-04-24T04:42:38;741.87;;;425.03;;
29280;SDS011;25048;49.590;11.026;2023-04-24T04:45:10;742.17;;;420.20;;
29280;SDS011;25048;49.590;11.026;2023-04-24T04:47:37;655.80;;;378.10;;
29280;SDS011;25048;49.590;11.026;2023-04-24T04:50:05;6.93;;;2.03;;
29280;SDS011;25048;49.590;11.026;2023-04-24T04:52:33;3.47;;;1.80;;
29280;SDS011;25048;49.590;11.026;2023-04-24T04:55:01;4.20;;;1.50;;
29280;SDS011;25048;49.590;11.026;2023-04-24T04:57:28;5.97;;;1.90;;
29280;SDS011;25048;49.590;11.026;2023-04-24T04:59:56;3.47;;;1.63;;
29280;SDS011;25048;49.590;11.026;2023-04-24T05:02:24;3.00;;;1.77;;
29280;SDS011;25048;49.590;11.026;2023-04-24T05:04:51;5.43;;;1.63;;
29280;SDS011;25048;49.590;11.026;2023-04-24T05:07:19;684.13;;;335.30;;
29280;SDS011;25048;49.590;11.026;2023-04-24T05:09:46;642.37;;;408.13;;
29280;SDS011;25048;49.590;11.026;2023-04-24T05:12:14;769.87;;;522.00;;
29280;SDS011;25048;49.590;11.026;2023-04-24T05:14:42;687.60;;;351.00;;
29280;SDS011;25048;49.590;11.026;2023-04-24T05:17:09;552.90;;;287.97;;
29280;SDS011;25048;49.590;11.026;2023-04-24T05:19:37;666.97;;;423.70;;
29280;SDS011;25048;49.590;11.026;2023-04-24T05:22:04;737.33;;;429.10;;
29280;SDS011;25048;49.590;11.026;2023-04-24T05:24:33;714.43;;;389.67;;
29280;SDS011;25048;49.590;11.026;2023-04-24T05:27:01;669.63;;;318.73;;
29280;SDS011;25048;49.590;11.026;2023-04-24T05:29:30;625.67;;;497.10;;
29280;SDS011;25048;49.590;11.026;2023-04-24T05:31:59;316.57;;;291.90;;
29280;SDS011;25048;49.590;11.026;2023-04-24T05:34:27;212.77;;;50.63;;
29280;SDS011;25048;49.590;11.026;2023-04-24T05:36:54;3.00;;;1.97;;
29280;SDS011;25048;49.590;11.026;2023-04-24T05:39:22;5.93;;;2.10;;
29280;SDS011;25048;49.590;11.026;2023-04-24T05:41:51;5.50;;;2.30;;
29280;SDS011;25048;49.590;11.026;2023-04-24T05:44:18;4.23;;;2.17;;
29280;SDS011;25048;49.590;11.026;2023-04-24T05:46:46;6.87;;;2.63;;
29280;SDS011;25048;49.590;11.026;2023-04-24T05:49:13;7.23;;;2.27;;
29280;SDS011;25048;49.590;11.026;2023-04-24T05:51:41;7.43;;;2.60;;
29280;SDS011;25048;49.590;11.026;2023-04-24T05:54:08;3.30;;;2.10;;
29280;SDS011;25048;49.590;11.026;2023-04-24T05:56:38;6.10;;;2.20;;
29280;SDS011;25048;49.590;11.026;2023-04-24T05:59:05;7.00;;;2.00;;
29280;SDS011;25048;49.590;11.026;2023-04-24T06:01:33;11.50;;;2.07;;
29280;SDS011;25048;49.590;11.026;2023-04-24T06:04:02;4.43;;;2.07;;
29280;SDS011;25048;49.590;11.026;2023-04-24T06:06:31;2.10;;;1.50;;
29280;SDS011;25048;49.590;11.026;2023-04-24T06:08:58;3.23;;;1.53;;
29280;SDS011;25048;49.590;11.026;2023-04-24T06:11:26;7.00;;;2.23;;
29280;SDS011;25048;49.590;11.026;2023-04-24T06:13:53;8.20;;;7.57;;
29280;SDS011;25048;49.590;11.026;2023-04-24T06:16:21;4.07;;;2.03;;
29280;SDS011;25048;49.590;11.026;2023-04-24T06:18:48;15.57;;;14.13;;
29280;SDS011;25048;49.590;11.026;2023-04-24T06:21:19;3.90;;;2.90;;
29280;SDS011;25048;49.590;11.026;2023-04-24T06:23:45;5.93;;;1.57;;
29280;SDS011;25048;49.590;11.026;2023-04-24T06:26:13;714.17;;;522.07;;
29280;SDS011;25048;49.590;11.026;2023-04-24T06:28:40;9.53;;;4.23;;
29280;SDS011;25048;49.590;11.026;2023-04-24T06:31:08;6.03;;;1.83;;
29280;SDS011;25048;49.590;11.026;2023-04-24T06:33:35;712.40;;;644.37;;
29280;SDS011;25048;49.590;11.026;2023-04-24T06:36:03;732.20;;;671.03;;
29280;SDS011;25048;49.590;11.026;2023-04-24T06:38:30;327.37;;;306.43;;
29280;SDS011;25048;49.590;11.026;2023-04-24T06:40:58;617.77;;;567.80;;
29280;SDS011;25048;49.590;11.026;2023-04-24T06:43:25;468.43;;;343.10;;
29280;SDS011;25048;49.590;11.026;2023-04-24T06:45:53;296.23;;;276.73;;
29280;SDS011;25048;49.590;11.026;2023-04-24T06:48:20;636.47;;;573.73;;
29280;SDS011;25048;49.590;11.026;2023-04-24T06:50:48;733.90;;;422.67;;
29280;SDS011;25048;49.590;11.026;2023-04-24T06:53:15;773.63;;;452.47;;
29280;SDS011;25048;49.590;11.026;2023-04-24T06:55:43;724.87;;;653.83;;
29280;SDS011;25048;49.590;11.026;2023-04-24T06:58:11;650.13;;;595.30;;
29280;SDS011;25048;49.590;11.026;2023-04-24T07:00:40;509.53;;;470.93;;
29280;SDS011;25048;49.590;11.026;2023-04-24T07:03:08;616.50;;;565.57;;
29280;SDS011;25048;49.590;11.026;2023-04-24T07:05:35;654.87;;;600.30;;
29280;SDS011;25048;49.590;11.026;2023-04-24T07:08:03;503.90;;;467.30;;
29280;SDS011;25048;49.590;11.026;2023-04-24T07:10:32;526.30;;;485.90;;
29280;SDS011;25048;49.590;11.026;2023-04-24T07:13:01;717.07;;;656.27;;
29280;SDS011;25048;49.590;11.026;2023-04-24T07:15:29;736.77;;;672.50;;
29280;SDS011;25048;49.590;11.026;2023-04-24T07:17:57;731.57;;;663.87;;
29280;SDS011;25048;49.590;11.026;2023-04-24T07:20:25;755.13;;;487.77;;
29280;SDS011;25048;49.590;11.026;2023-04-24T07:22:52;672.40;;;364.93;;
29280;SDS011;25048;49.590;11.026;2023-04-24T07:25:20;380.37;;;323.23;;
29280;SDS011;25048;49.590;11.026;2023-04-24T07:27:48;676.40;;;378.50;;
29280;SDS011;25048;49.590;11.026;2023-04-24T07:30:15;670.00;;;370.23;;
29280;SDS011;25048;49.590;11.026;2023-04-24T07:32:43;688.83;;;385.47;;
29280;SDS011;25048;49.590;11.026;2023-04-24T07:35:11;685.13;;;386.47;;
29280;SDS011;25048;49.590;11.026;2023-04-24T07:37:38;155.03;;;145.50;;
29280;SDS011;25048;49.590;11.026;2023-04-24T07:40:06;617.87;;;555.67;;
29280;SDS011;25048;49.590;11.026;2023-04-24T07:42:34;836.40;;;745.57;;
29280;SDS011;25048;49.590;11.026;2023-04-24T07:45:02;651.80;;;593.50;;
29280;SDS011;25048;49.590;11.026;2023-04-24T07:47:30;620.43;;;563.10;;
29280;SDS011;25048;49.590;11.026;2023-04-24T07:49:58;357.87;;;331.67;;
29280;SDS011;25048;49.590;11.026;2023-04-24T07:52:26;80.20;;;75.70;;
29280;SDS011;25048;49.590;11.026;2023-04-24T07:54:54;83.37;;;78.50;;
29280;SDS011;25048;49.590;11.026;2023-04-24T07:57:26;402.50;;;374.00;;
29280;SDS011;25048;49.590;11.026;2023-04-24T07:59:54;548.43;;;503.60;;
29280;SDS011;25048;49.590;11.026;2023-04-24T08:02:22;132.03;;;122.70;;
29280;SDS011;25048;49.590;11.026;2023-04-24T08:04:51;421.57;;;376.47;;
29280;SDS011;25048;49.590;11.026;2023-04-24T08:07:22;706.10;;;508.30;;
29280;SDS011;25048;49.590;11.026;2023-04-24T08:09:50;720.23;;;470.30;;
29280;SDS011;25048;49.590;11.026;2023-04-24T08:12:17;861.57;;;713.63;;
29280;SDS011;25048;49.590;11.026;2023-04-24T08:14:45;907.40;;;806.93;;
29280;SDS011;25048;49.590;11.026;2023-04-24T08:17:13;841.53;;;695.33;;
29280;SDS011;25048;49.590;11.026;2023-04-24T08:19:40;250.00;;;226.93;;
29280;SDS011;25048;49.590;11.026;2023-04-24T08:22:12;850.23;;;761.80;;
29280;SDS011;25048;49.590;11.026;2023-04-24T08:24:40;865.67;;;746.27;;
29280;SDS011;25048;49.590;11.026;2023-04-24T08:27:07;833.27;;;680.40;;
29280;SDS011;25048;49.590;11.026;2023-04-24T08:29:36;343.77;;;321.13;;
29280;SDS011;25048;49.590;11.026;2023-04-24T08:32:04;304.97;;;284.83;;
29280;SDS011;25048;49.590;11.026;2023-04-24T08:34:32;168.57;;;157.97;;
29280;SDS011;25048;49.590;11.026;2023-04-24T08:36:59;269.47;;;252.27;;
29280;SDS011;25048;49.590;11.026;2023-04-24T08:39:27;277.10;;;258.83;;
29280;SDS011;25048;49.590;11.026;2023-04-24T08:41:55;846.57;;;733.43;;
29280;SDS011;25048;49.590;11.026;2023-04-24T08:44:22;850.27;;;689.30;;
29280;SDS011;25048;49.590;11.026;2023-04-24T08:46:50;866.07;;;790.53;;
29280;SDS011;25048;49.590;11.026;2023-04-24T08:49:19;837.87;;;679.53;;
29280;SDS011;25048;49.590;11.026;2023-04-24T08:51:47;657.93;;;607.20;;
29280;SDS011;25048;49.590;11.026;2023-04-24T08:54:15;849.27;;;691.90;;
29280;SDS011;25048;49.590;11.026;2023-04-24T08:56:44;366.53;;;342.73;;
29280;SDS011;25048;49.590;11.026;2023-04-24T08:59:15;483.37;;;449.80;;
29280;SDS011;25048;49.590;11.026;2023-04-24T09:01:42;475.63;;;442.40;;
29280;SDS011;25048;49.590;11.026;2023-04-24T09:04:13;639.67;;;590.63;;
29280;SDS011;25048;49.590;11.026;2023-04-24T09:06:43;814.50;;;726.07;;
29280;SDS011;25048;49.590;11.026;2023-04-24T09:09:11;912.37;;;835.67;;
29280;SDS011;25048;49.590;11.026;2023-04-24T09:11:39;818.63;;;680.33;;
29280;SDS011;25048;49.590;11.026;2023-04-24T09:14:07;906.50;;;825.87;;
29280;SDS011;25048;49.590;11.026;2023-04-24T09:16:36;826.83;;;655.30;;
29280;SDS011;25048;49.590;11.026;2023-04-24T09:19:04;875.40;;;802.20;;
29280;SDS011;25048;49.590;11.026;2023-04-24T09:21:32;884.77;;;810.87;;
29280;SDS011;25048;49.590;11.026;2023-04-24T09:24:01;851.47;;;760.30;;
29280;SDS011;25048;49.590;11.026;2023-04-24T09:26:31;914.23;;;836.50;;
29280;SDS011;25048;49.590;11.026;2023-04-24T09:29:00;817.67;;;706.93;;
29280;SDS011;25048;49.590;11.026;2023-04-24T09:31:29;952.77;;;862.87;;
29280;SDS011;25048;49.590;11.026;2023-04-24T09:33:58;930.43;;;835.03;;
29280;SDS011;25048;49.590;11.026;2023-04-24T09:36:32;921.50;;;822.40;;
29280;SDS011;25048;49.590;11.026;2023-04-24T09:39:09;831.10;;;693.83;;
29280;SDS011;25048;49.590;11.026;2023-04-24T09:41:47;809.37;;;668.60;;
29280;SDS011;25048;49.590;11.026;2023-04-24T09:44:17;859.53;;;740.77;;
29280;SDS011;25048;49.590;11.026;2023-04-24T09:46:49;946.63;;;867.03;;
29280;SDS011;25048;49.590;11.026;2023-04-24T09:49:22;965.93;;;872.00;;
29280;SDS011;25048;49.590;11.026;2023-04-24T09:51:51;962.13;;;867.93;;
29280;SDS011;25048;49.590;11.026;2023-04-24T09:54:21;895.70;;;796.80;;
29280;SDS011;25048;49.590;11.026;2023-04-24T09:56:50;892.03;;;792.10;;
29280;SDS011;25048;49.590;11.026;2023-04-24T09:59:18;878.10;;;771.00;;
29280;SDS011;25048;49.590;11.026;2023-04-24T10:01:46;865.47;;;747.93;;
29280;SDS011;25048;49.590;11.026;2023-04-24T10:04:18;859.13;;;735.03;;
29280;SDS011;25048;49.590;11.026;2023-04-24T10:06:47;842.10;;;702.57;;
29280;SDS011;25048;49.590;11.026;2023-04-24T10:09:16;858.83;;;733.17;;
29280;SDS011;25048;49.590;11.026;2023-04-24T10:11:45;843.00;;;714.53;;
29280;SDS011;25048;49.590;11.026;2023-04-24T10:14:15;839.90;;;720.40;;
29280;SDS011;25048;49.590;11.026;2023-04-24T10:16:47;850.30;;;725.63;;
29280;SDS011;25048;49.590;11.026;2023-04-24T10:19:16;837.73;;;707.60;;
29280;SDS011;25048;49.590;11.026;2023-04-24T10:21:47;841.20;;;707.53;;
29280;SDS011;25048;49.590;11.026;2023-04-24T10:24:15;827.73;;;693.77;;
29280;SDS011;25048;49.590;11.026;2023-04-24T10:26:44;866.03;;;754.70;;
29280;SDS011;25048;49.590;11.026;2023-04-24T10:29:14;800.07;;;643.90;;
29280;SDS011;25048;49.590;11.026;2023-04-24T10:31:44;795.97;;;623.90;;
29280;SDS011;25048;49.590;11.026;2023-04-24T10:34:13;785.23;;;603.70;;
29280;SDS011;25048;49.590;11.026;2023-04-24T10:36:48;814.03;;;663.50;;
29280;SDS011;25048;49.590;11.026;2023-04-24T10:39:18;776.47;;;594.97;;
29280;SDS011;25048;49.590;11.026;2023-04-24T10:41:53;775.13;;;590.13;;
29280;SDS011;25048;49.590;11.026;2023-04-24T10:44:16;764.40;;;580.13;;
29280;SDS011;25048;49.590;11.026;2023-04-24T10:46:45;755.47;;;546.77;;
29280;SDS011;25048;49.590;11.026;2023-04-24T10:49:16;815.27;;;632.40;;
29280;SDS011;25048;49.590;11.026;2023-04-24T10:51:49;826.03;;;654.03;;
29280;SDS011;25048;49.590;11.026;2023-04-24T10:54:23;878.47;;;757.33;;
29280;SDS011;25048;49.590;11.026;2023-04-24T11:00:12;885.13;;;805.30;;
29280;SDS011;25048;49.590;11.026;2023-04-24T11:02:46;906.80;;;829.53;;
29280;SDS011;25048;49.590;11.026;2023-04-24T11:05:16;927.70;;;836.47;;
29280;SDS011;25048;49.590;11.026;2023-04-24T11:10:45;876.13;;;762.47;;
29280;SDS011;25048;49.590;11.026;2023-04-24T11:13:14;860.03;;;728.13;;
29280;SDS011;25048;49.590;11.026;2023-04-24T11:15:43;898.53;;;769.77;;
29280;SDS011;25048;49.590;11.026;2023-04-24T11:18:14;913.60;;;807.97;;
29280;SDS011;25048;49.590;11.026;2023-04-24T11:20:42;952.77;;;849.93;;
29280;SDS011;25048;49.590;11.026;2023-04-24T11:23:11;902.77;;;796.53;;
29280;SDS011;25048;49.590;11.026;2023-04-24T11:25:40;906.97;;;783.00;;
29280;SDS011;25048;49.590;11.026;2023-04-24T11:28:08;910.17;;;804.07;;
29280;SDS011;25048;49.590;11.026;2023-04-24T11:30:39;858.33;;;742.77;;
29280;SDS011;25048;49.590;11.026;2023-04-24T11:33:07;852.87;;;747.67;;
29280;SDS011;25048;49.590;11.026;2023-04-24T11:35:35;14.00;;;13.20;;
29280;SDS011;25048;49.590;11.026;2023-04-24T11:38:04;183.23;;;171.67;;
29280;SDS011;25048;49.590;11.026;2023-04-24T11:40:32;137.03;;;128.33;;
29280;SDS011;25048;49.590;11.026;2023-04-24T11:43:00;887.90;;;793.63;;
29280;SDS011;25048;49.590;11.026;2023-04-24T11:45:29;674.90;;;603.23;;
29280;SDS011;25048;49.590;11.026;2023-04-24T11:47:57;870.17;;;776.67;;
29280;SDS011;25048;49.590;11.026;2023-04-24T11:50:25;95.43;;;89.53;;
29280;SDS011;25048;49.590;11.026;2023-04-24T11:52:54;714.50;;;646.30;;
29280;SDS011;25048;49.590;11.026;2023-04-24T11:55:22;884.87;;;804.97;;
29280;SDS011;25048;49.590;11.026;2023-04-24T11:57:55;5.60;;;2.33;;
29280;SDS011;25048;49.590;11.026;2023-04-24T12:00:25;4.60;;;1.80;;
29280;SDS011;25048;49.590;11.026;2023-04-24T12:03:09;4.43;;;2.23;;
29280;SDS011;25048;49.590;11.026;2023-04-24T12:05:34;6.77;;;2.07;;
29280;SDS011;25048;49.590;11.026;2023-04-24T12:08:02;10.03;;;3.10;;
29280;SDS011;25048;49.590;11.026;2023-04-24T12:10:31;7.50;;;2.63;;
29280;SDS011;25048;49.590;11.026;2023-04-24T12:13:00;3.40;;;1.77;;
29280;SDS011;25048;49.590;11.026;2023-04-24T12:15:28;6.00;;;2.43;;
29280;SDS011;25048;49.590;11.026;2023-04-24T12:17:55;4.43;;;2.33;;
29280;SDS011;25048;49.590;11.026;2023-04-24T12:20:24;2.43;;;1.63;;
29280;SDS011;25048;49.590;11.026;2023-04-24T12:22:57;4.47;;;1.97;;
29280;SDS011;25048;49.590;11.026;2023-04-24T12:25:26;3.50;;;1.73;;
29280;SDS011;25048;49.590;11.026;2023-04-24T12:28:08;3.37;;;1.87;;
29280;SDS011;25048;49.590;11.026;2023-04-24T12:30:27;9.77;;;2.73;;
29280;SDS011;25048;49.590;11.026;2023-04-24T12:32:57;15.25;;;13.78;;
29280;SDS011;25048;49.590;11.026;2023-04-24T12:35:31;5.20;;;2.90;;
29280;SDS011;25048;49.590;11.026;2023-04-24T12:38:12;9.13;;;2.60;;
29280;SDS011;25048;49.590;11.026;2023-04-24T12:40:39;6.45;;;2.90;;
29280;SDS011;25048;49.590;11.026;2023-04-24T12:43:17;4.93;;;2.13;;
29280;SDS011;25048;49.590;11.026;2023-04-24T12:45:47;6.80;;;6.20;;
29280;SDS011;25048;49.590;11.026;2023-04-24T12:48:14;7.77;;;4.27;;
29280;SDS011;25048;49.590;11.026;2023-04-24T12:50:42;865.40;;;783.60;;
29280;SDS011;25048;49.590;11.026;2023-04-24T12:53:10;357.17;;;331.23;;
29280;SDS011;25048;49.590;11.026;2023-04-24T12:55:38;8.17;;;2.93;;
29280;SDS011;25048;49.590;11.026;2023-04-24T12:58:06;61.33;;;57.50;;
29280;SDS011;25048;49.590;11.026;2023-04-24T13:00:33;897.37;;;811.30;;
29280;SDS011;25048;49.590;11.026;2023-04-24T13:03:01;118.63;;;111.00;;
29280;SDS011;25048;49.590;11.026;2023-04-24T13:05:29;213.53;;;197.73;;
29280;SDS011;25048;49.590;11.026;2023-04-24T13:07:57;8.40;;;7.60;;
29280;SDS011;25048;49.590;11.026;2023-04-24T13:10:24;221.83;;;207.37;;
29280;SDS011;25048;49.590;11.026;2023-04-24T13:12:52;675.43;;;622.57;;
29280;SDS011;25048;49.590;11.026;2023-04-24T13:15:20;241.63;;;225.07;;
29280;SDS011;25048;49.590;11.026;2023-04-24T13:17:47;448.00;;;416.77;;
29280;SDS011;25048;49.590;11.026;2023-04-24T13:20:16;888.93;;;810.93;;
29280;SDS011;25048;49.590;11.026;2023-04-24T13:22:43;801.47;;;650.63;;
29280;SDS011;25048;49.590;11.026;2023-04-24T13:25:11;10.97;;;9.40;;
29280;SDS011;25048;49.590;11.026;2023-04-24T13:27:38;3.10;;;2.23;;
29280;SDS011;25048;49.590;11.026;2023-04-24T13:30:06;5.17;;;2.10;;
29280;SDS011;25048;49.590;11.026;2023-04-24T13:32:35;11.67;;;3.47;;
29280;SDS011;25048;49.590;11.026;2023-04-24T13:35:02;4.10;;;1.87;;
29280;SDS011;25048;49.590;11.026;2023-04-24T13:37:30;8.50;;;2.20;;
29280;SDS011;25048;49.590;11.026;2023-04-24T13:39:58;8.97;;;2.90;;
29280;SDS011;25048;49.590;11.026;2023-04-24T13:42:30;5.23;;;2.30;;
29280;SDS011;25048;49.590;11.026;2023-04-24T13:45:02;7.80;;;3.00;;
29280;SDS011;25048;49.590;11.026;2023-04-24T13:47:38;10.67;;;3.97;;
29280;SDS011;25048;49.590;11.026;2023-04-24T13:50:08;73.47;;;68.10;;
29280;SDS011;25048;49.590;11.026;2023-04-24T13:52:39;138.32;;;128.85;;
29280;SDS011;25048;49.590;11.026;2023-04-24T13:55:09;4.78;;;2.40;;
29280;SDS011;25048;49.590;11.026;2023-04-24T13:57:43;9.03;;;3.37;;
29280;SDS011;25048;49.590;11.026;2023-04-24T14:00:17;8.38;;;2.15;;
29280;SDS011;25048;49.590;11.026;2023-04-24T14:02:46;4.55;;;2.15;;
29280;SDS011;25048;49.590;11.026;2023-04-24T14:05:16;8.18;;;2.52;;
29280;SDS011;25048;49.590;11.026;2023-04-24T14:07:52;836.00;;;746.83;;
29280;SDS011;25048;49.590;11.026;2023-04-24T14:10:28;947.30;;;868.80;;
29280;SDS011;25048;49.590;11.026;2023-04-24T14:12:59;5.97;;;2.75;;